sensor_id;sensor_type;location;lat;lon;timestamp;P1;durP1;ratioP1;P2;durP2;ratioP2
71162;SDS011;58858;50.948;6.566;2022-12-29T00:00:22;1.45;;;0.55;;
71162;SDS011;58858;50.948;6.566;2022-12-29T00:10:23;1.08;;;0.10;;
71162;SDS011;58858;50.948;6.566;2022-12-29T00:20:24;0.17;;;0.10;;
71162;SDS011;58858;50.948;6.566;2022-12-29T00:30:44;0.38;;;0.20;;
71162;SDS011;58858;50.948;6.566;2022-12-29T00:41:03;0.57;;;0.20;;
71162;SDS011;58858;50.948;6.566;2022-12-29T00:51:23;0.70;;;0.13;;
71162;SDS011;58858;50.948;6.566;2022-12-29T01:01:24;0.17;;;0.17;;
71162;SDS011;58858;50.948;6.566;2022-12-29T01:11:25;0.25;;;0.10;;
71162;SDS011;58858;50.948;6.566;2022-12-29T01:21:26;0.68;;;0.20;;
71162;SDS011;58858;50.948;6.566;2022-12-29T01:31:27;0.30;;;0.10;;
71162;SDS011;58858;50.948;6.566;2022-12-29T01:41:28;1.38;;;0.50;;
71162;SDS011;58858;50.948;6.566;2022-12-29T01:51:30;1.30;;;0.90;;
71162;SDS011;58858;50.948;6.566;2022-12-29T02:01:32;2.15;;;0.57;;
71162;SDS011;58858;50.948;6.566;2022-12-29T02:11:35;3.50;;;0.63;;
71162;SDS011;58858;50.948;6.566;2022-12-29T02:22:14;6.60;;;0.70;;
71162;SDS011;58858;50.948;6.566;2022-12-29T02:42:36;0.30;;;0.30;;
71162;SDS011;58858;50.948;6.566;2022-12-29T02:52:48;1.20;;;0.30;;
71162;SDS011;58858;50.948;6.566;2022-12-29T03:03:13;2.60;;;0.30;;
71162;SDS011;58858;50.948;6.566;2022-12-29T03:23:43;0.53;;;0.10;;
71162;SDS011;58858;50.948;6.566;2022-12-29T03:33:48;1.30;;;0.52;;
71162;SDS011;58858;50.948;6.566;2022-12-29T03:43:49;5.00;;;0.90;;
71162;SDS011;58858;50.948;6.566;2022-12-29T03:53:52;2.97;;;0.43;;
71162;SDS011;58858;50.948;6.566;2022-12-29T04:03:53;1.27;;;0.30;;
71162;SDS011;58858;50.948;6.566;2022-12-29T04:13:55;1.30;;;0.52;;
71162;SDS011;58858;50.948;6.566;2022-12-29T04:23:59;0.38;;;0.22;;
71162;SDS011;58858;50.948;6.566;2022-12-29T04:34:00;1.27;;;0.65;;
71162;SDS011;58858;50.948;6.566;2022-12-29T04:44:03;1.58;;;0.60;;
71162;SDS011;58858;50.948;6.566;2022-12-29T04:54:27;2.42;;;0.40;;
71162;SDS011;58858;50.948;6.566;2022-12-29T05:04:44;2.47;;;0.55;;
71162;SDS011;58858;50.948;6.566;2022-12-29T05:14:45;1.17;;;0.40;;
71162;SDS011;58858;50.948;6.566;2022-12-29T05:24:46;2.40;;;0.75;;
71162;SDS011;58858;50.948;6.566;2022-12-29T05:34:48;1.85;;;0.73;;
71162;SDS011;58858;50.948;6.566;2022-12-29T05:44:49;2.20;;;0.40;;
71162;SDS011;58858;50.948;6.566;2022-12-29T05:55:20;3.25;;;1.27;;
71162;SDS011;58858;50.948;6.566;2022-12-29T06:05:24;3.53;;;0.70;;
71162;SDS011;58858;50.948;6.566;2022-12-29T06:15:26;2.30;;;0.95;;
71162;SDS011;58858;50.948;6.566;2022-12-29T06:25:29;3.90;;;0.70;;
71162;SDS011;58858;50.948;6.566;2022-12-29T06:35:32;1.65;;;0.60;;
71162;SDS011;58858;50.948;6.566;2022-12-29T06:45:34;1.65;;;0.80;;
71162;SDS011;58858;50.948;6.566;2022-12-29T06:55:35;3.13;;;1.17;;
71162;SDS011;58858;50.948;6.566;2022-12-29T07:06:05;3.10;;;0.60;;
71162;SDS011;58858;50.948;6.566;2022-12-29T07:16:06;3.03;;;0.55;;
71162;SDS011;58858;50.948;6.566;2022-12-29T07:26:09;1.77;;;1.08;;
71162;SDS011;58858;50.948;6.566;2022-12-29T07:36:13;0.52;;;0.40;;
71162;SDS011;58858;50.948;6.566;2022-12-29T07:46:15;4.90;;;1.35;;
71162;SDS011;58858;50.948;6.566;2022-12-29T07:56:16;1.83;;;0.68;;
71162;SDS011;58858;50.948;6.566;2022-12-29T08:06:17;3.88;;;0.93;;
71162;SDS011;58858;50.948;6.566;2022-12-29T08:16:19;6.53;;;1.70;;
71162;SDS011;58858;50.948;6.566;2022-12-29T08:26:20;4.85;;;0.90;;
71162;SDS011;58858;50.948;6.566;2022-12-29T08:36:21;6.35;;;1.20;;
71162;SDS011;58858;50.948;6.566;2022-12-29T08:46:22;5.47;;;1.00;;
71162;SDS011;58858;50.948;6.566;2022-12-29T08:56:23;5.80;;;1.75;;
71162;SDS011;58858;50.948;6.566;2022-12-29T09:06:27;6.45;;;1.55;;
71162;SDS011;58858;50.948;6.566;2022-12-29T09:16:28;7.28;;;1.23;;
71162;SDS011;58858;50.948;6.566;2022-12-29T09:26:29;5.03;;;1.25;;
71162;SDS011;58858;50.948;6.566;2022-12-29T09:36:30;8.32;;;1.20;;
71162;SDS011;58858;50.948;6.566;2022-12-29T09:46:34;11.02;;;2.20;;
71162;SDS011;58858;50.948;6.566;2022-12-29T09:56:37;4.93;;;1.02;;
71162;SDS011;58858;50.948;6.566;2022-12-29T10:06:43;5.55;;;1.42;;
71162;SDS011;58858;50.948;6.566;2022-12-29T10:26:48;10.85;;;1.83;;
71162;SDS011;58858;50.948;6.566;2022-12-29T10:36:58;8.55;;;2.42;;
71162;SDS011;58858;50.948;6.566;2022-12-29T10:47:03;7.05;;;1.02;;
71162;SDS011;58858;50.948;6.566;2022-12-29T10:57:18;7.87;;;1.40;;
71162;SDS011;58858;50.948;6.566;2022-12-29T11:07:24;8.68;;;1.55;;
71162;SDS011;58858;50.948;6.566;2022-12-29T11:17:26;12.02;;;2.45;;
71162;SDS011;58858;50.948;6.566;2022-12-29T11:27:27;14.93;;;2.88;;
71162;SDS011;58858;50.948;6.566;2022-12-29T11:37:46;8.77;;;1.92;;
71162;SDS011;58858;50.948;6.566;2022-12-29T11:48:07;9.02;;;1.50;;
71162;SDS011;58858;50.948;6.566;2022-12-29T11:58:11;8.30;;;1.20;;
71162;SDS011;58858;50.948;6.566;2022-12-29T12:08:17;10.15;;;1.65;;
71162;SDS011;58858;50.948;6.566;2022-12-29T12:28:40;6.85;;;1.20;;
71162;SDS011;58858;50.948;6.566;2022-12-29T12:49:17;8.65;;;1.63;;
71162;SDS011;58858;50.948;6.566;2022-12-29T12:59:34;3.42;;;1.02;;
71162;SDS011;58858;50.948;6.566;2022-12-29T13:09:57;4.03;;;2.28;;
71162;SDS011;58858;50.948;6.566;2022-12-29T13:20:29;5.47;;;1.08;;
71162;SDS011;58858;50.948;6.566;2022-12-29T13:30:42;6.72;;;1.80;;
71162;SDS011;58858;50.948;6.566;2022-12-29T13:41:04;5.05;;;0.80;;
71162;SDS011;58858;50.948;6.566;2022-12-29T13:51:08;5.20;;;1.27;;
71162;SDS011;58858;50.948;6.566;2022-12-29T14:01:20;3.08;;;0.70;;
71162;SDS011;58858;50.948;6.566;2022-12-29T14:11:38;8.57;;;0.90;;
71162;SDS011;58858;50.948;6.566;2022-12-29T14:21:39;2.65;;;0.90;;
71162;SDS011;58858;50.948;6.566;2022-12-29T14:31:41;4.55;;;1.08;;
71162;SDS011;58858;50.948;6.566;2022-12-29T14:41:42;4.13;;;0.82;;
71162;SDS011;58858;50.948;6.566;2022-12-29T14:51:43;9.25;;;2.05;;
71162;SDS011;58858;50.948;6.566;2022-12-29T15:01:49;4.57;;;1.87;;
71162;SDS011;58858;50.948;6.566;2022-12-29T15:11:54;4.70;;;1.97;;
71162;SDS011;58858;50.948;6.566;2022-12-29T15:21:57;6.40;;;1.45;;
71162;SDS011;58858;50.948;6.566;2022-12-29T15:32:02;6.88;;;2.08;;
71162;SDS011;58858;50.948;6.566;2022-12-29T15:52:27;5.55;;;2.28;;
71162;SDS011;58858;50.948;6.566;2022-12-29T16:02:30;8.20;;;1.67;;
71162;SDS011;58858;50.948;6.566;2022-12-29T16:12:32;11.80;;;1.85;;
71162;SDS011;58858;50.948;6.566;2022-12-29T16:22:36;11.95;;;3.03;;
71162;SDS011;58858;50.948;6.566;2022-12-29T16:32:45;13.03;;;2.13;;
71162;SDS011;58858;50.948;6.566;2022-12-29T16:42:47;13.38;;;3.47;;
71162;SDS011;58858;50.948;6.566;2022-12-29T16:52:49;13.80;;;3.10;;
71162;SDS011;58858;50.948;6.566;2022-12-29T17:02:50;11.25;;;2.45;;
71162;SDS011;58858;50.948;6.566;2022-12-29T17:12:54;11.82;;;2.50;;
71162;SDS011;58858;50.948;6.566;2022-12-29T17:22:56;7.53;;;2.55;;
71162;SDS011;58858;50.948;6.566;2022-12-29T17:33:03;11.73;;;3.20;;
71162;SDS011;58858;50.948;6.566;2022-12-29T17:43:07;12.25;;;3.20;;
71162;SDS011;58858;50.948;6.566;2022-12-29T17:53:13;12.27;;;2.72;;
71162;SDS011;58858;50.948;6.566;2022-12-29T18:03:16;13.52;;;2.80;;
71162;SDS011;58858;50.948;6.566;2022-12-29T18:13:28;18.95;;;3.90;;
71162;SDS011;58858;50.948;6.566;2022-12-29T18:23:31;9.80;;;2.63;;
71162;SDS011;58858;50.948;6.566;2022-12-29T18:33:34;14.93;;;4.03;;
71162;SDS011;58858;50.948;6.566;2022-12-29T18:43:35;10.25;;;2.63;;
71162;SDS011;58858;50.948;6.566;2022-12-29T18:53:36;9.05;;;1.98;;
71162;SDS011;58858;50.948;6.566;2022-12-29T19:03:37;10.77;;;2.38;;
71162;SDS011;58858;50.948;6.566;2022-12-29T19:13:39;12.18;;;2.47;;
71162;SDS011;58858;50.948;6.566;2022-12-29T19:23:40;7.90;;;2.47;;
71162;SDS011;58858;50.948;6.566;2022-12-29T19:33:41;6.45;;;1.88;;
71162;SDS011;58858;50.948;6.566;2022-12-29T19:43:42;9.85;;;3.20;;
71162;SDS011;58858;50.948;6.566;2022-12-29T19:53:43;11.43;;;4.28;;
71162;SDS011;58858;50.948;6.566;2022-12-29T20:03:45;10.82;;;2.40;;
71162;SDS011;58858;50.948;6.566;2022-12-29T20:13:46;10.50;;;3.28;;
71162;SDS011;58858;50.948;6.566;2022-12-29T20:23:48;11.32;;;3.30;;
71162;SDS011;58858;50.948;6.566;2022-12-29T20:33:50;7.35;;;2.08;;
71162;SDS011;58858;50.948;6.566;2022-12-29T20:43:52;8.73;;;2.05;;
71162;SDS011;58858;50.948;6.566;2022-12-29T20:53:53;9.80;;;2.25;;
71162;SDS011;58858;50.948;6.566;2022-12-29T21:03:54;9.15;;;3.22;;
71162;SDS011;58858;50.948;6.566;2022-12-29T21:13:55;7.03;;;1.95;;
71162;SDS011;58858;50.948;6.566;2022-12-29T21:23:56;11.15;;;2.35;;
71162;SDS011;58858;50.948;6.566;2022-12-29T21:34:05;10.48;;;2.50;;
71162;SDS011;58858;50.948;6.566;2022-12-29T21:44:06;14.82;;;3.45;;
71162;SDS011;58858;50.948;6.566;2022-12-29T21:54:26;15.77;;;2.92;;
71162;SDS011;58858;50.948;6.566;2022-12-29T22:04:46;14.73;;;3.08;;
71162;SDS011;58858;50.948;6.566;2022-12-29T22:15:06;10.75;;;2.90;;
71162;SDS011;58858;50.948;6.566;2022-12-29T22:25:08;13.57;;;2.90;;
71162;SDS011;58858;50.948;6.566;2022-12-29T22:35:10;13.23;;;3.35;;
71162;SDS011;58858;50.948;6.566;2022-12-29T22:45:12;12.63;;;2.95;;
71162;SDS011;58858;50.948;6.566;2022-12-29T22:55:14;8.85;;;2.90;;
71162;SDS011;58858;50.948;6.566;2022-12-29T23:05:15;12.65;;;3.72;;
71162;SDS011;58858;50.948;6.566;2022-12-29T23:15:16;15.57;;;3.17;;
71162;SDS011;58858;50.948;6.566;2022-12-29T23:25:18;14.55;;;4.30;;
71162;SDS011;58858;50.948;6.566;2022-12-29T23:35:19;13.13;;;2.75;;
71162;SDS011;58858;50.948;6.566;2022-12-29T23:45:20;12.40;;;3.55;;
71162;SDS011;58858;50.948;6.566;2022-12-29T23:55:21;9.82;;;2.30;;
